sensor_id;sensor_type;location;lat;lon;timestamp;temperature;humidity
12115;DHT22;6121;49.810;6.418;2023-01-15T00:01:21;9.40;99.90
12115;DHT22;6121;49.810;6.418;2023-01-15T00:03:47;9.50;99.90
12115;DHT22;6121;49.810;6.418;2023-01-15T00:06:17;9.60;99.90
12115;DHT22;6121;49.810;6.418;2023-01-15T00:08:44;9.60;99.90
12115;DHT22;6121;49.810;6.418;2023-01-15T00:11:10;9.40;99.90
12115;DHT22;6121;49.810;6.418;2023-01-15T00:13:36;9.60;99.90
12115;DHT22;6121;49.810;6.418;2023-01-15T00:16:09;9.60;99.90
12115;DHT22;6121;49.810;6.418;2023-01-15T00:18:36;9.80;99.90
12115;DHT22;6121;49.810;6.418;2023-01-15T00:21:05;9.80;99.90
12115;DHT22;6121;49.810;6.418;2023-01-15T00:23:31;9.80;99.90
12115;DHT22;6121;49.810;6.418;2023-01-15T00:26:17;9.80;99.90
12115;DHT22;6121;49.810;6.418;2023-01-15T00:29:03;9.70;99.90
12115;DHT22;6121;49.810;6.418;2023-01-15T00:31:29;9.60;99.90
12115;DHT22;6121;49.810;6.418;2023-01-15T00:33:57;9.30;99.90
12115;DHT22;6121;49.810;6.418;2023-01-15T00:36:23;9.10;99.90
12115;DHT22;6121;49.810;6.418;2023-01-15T00:38:50;9.00;99.90
12115;DHT22;6121;49.810;6.418;2023-01-15T00:41:16;9.00;99.90
12115;DHT22;6121;49.810;6.418;2023-01-15T00:43:42;9.20;99.90
12115;DHT22;6121;49.810;6.418;2023-01-15T00:46:08;9.10;99.90
12115;DHT22;6121;49.810;6.418;2023-01-15T00:48:34;8.90;99.90
12115;DHT22;6121;49.810;6.418;2023-01-15T00:51:00;9.00;99.90
12115;DHT22;6121;49.810;6.418;2023-01-15T00:53:26;8.90;99.90
12115;DHT22;6121;49.810;6.418;2023-01-15T00:55:52;9.00;99.90
12115;DHT22;6121;49.810;6.418;2023-01-15T00:58:18;8.90;99.90
12115;DHT22;6121;49.810;6.418;2023-01-15T01:00:44;8.60;99.90
12115;DHT22;6121;49.810;6.418;2023-01-15T01:03:10;8.60;99.90
12115;DHT22;6121;49.810;6.418;2023-01-15T01:05:38;8.70;99.90
12115;DHT22;6121;49.810;6.418;2023-01-15T01:08:03;8.90;99.90
12115;DHT22;6121;49.810;6.418;2023-01-15T01:10:29;8.80;99.90
12115;DHT22;6121;49.810;6.418;2023-01-15T01:12:55;8.80;99.90
12115;DHT22;6121;49.810;6.418;2023-01-15T01:15:22;8.70;99.90
12115;DHT22;6121;49.810;6.418;2023-01-15T01:17:48;8.80;99.90
12115;DHT22;6121;49.810;6.418;2023-01-15T01:20:16;8.90;99.90
12115;DHT22;6121;49.810;6.418;2023-01-15T01:22:42;9.00;99.90
12115;DHT22;6121;49.810;6.418;2023-01-15T01:25:09;9.00;99.90
12115;DHT22;6121;49.810;6.418;2023-01-15T01:27:35;8.80;99.90
12115;DHT22;6121;49.810;6.418;2023-01-15T01:30:02;8.30;99.90
12115;DHT22;6121;49.810;6.418;2023-01-15T01:32:28;8.10;99.90
12115;DHT22;6121;49.810;6.418;2023-01-15T01:34:55;8.30;99.90
12115;DHT22;6121;49.810;6.418;2023-01-15T01:37:22;8.30;99.90
12115;DHT22;6121;49.810;6.418;2023-01-15T01:39:48;8.10;99.90
12115;DHT22;6121;49.810;6.418;2023-01-15T01:42:15;8.40;99.90
12115;DHT22;6121;49.810;6.418;2023-01-15T01:47:28;8.30;99.90
12115;DHT22;6121;49.810;6.418;2023-01-15T01:50:00;8.30;99.90
12115;DHT22;6121;49.810;6.418;2023-01-15T01:52:41;8.10;99.90
12115;DHT22;6121;49.810;6.418;2023-01-15T01:55:08;8.10;99.90
12115;DHT22;6121;49.810;6.418;2023-01-15T01:57:36;7.90;99.90
12115;DHT22;6121;49.810;6.418;2023-01-15T02:00:03;7.90;99.90
12115;DHT22;6121;49.810;6.418;2023-01-15T02:02:40;7.90;99.90
12115;DHT22;6121;49.810;6.418;2023-01-15T02:05:08;7.90;99.90
12115;DHT22;6121;49.810;6.418;2023-01-15T02:07:35;8.10;99.90
12115;DHT22;6121;49.810;6.418;2023-01-15T02:10:01;8.00;99.90
12115;DHT22;6121;49.810;6.418;2023-01-15T02:12:33;8.10;99.90
12115;DHT22;6121;49.810;6.418;2023-01-15T02:15:12;8.20;99.90
12115;DHT22;6121;49.810;6.418;2023-01-15T02:18:21;8.10;99.90
12115;DHT22;6121;49.810;6.418;2023-01-15T02:21:06;7.80;99.90
12115;DHT22;6121;49.810;6.418;2023-01-15T02:23:57;7.70;99.90
12115;DHT22;6121;49.810;6.418;2023-01-15T02:29:09;7.70;99.90
12115;DHT22;6121;49.810;6.418;2023-01-15T02:31:41;7.60;99.90
12115;DHT22;6121;49.810;6.418;2023-01-15T02:34:30;7.50;99.90
12115;DHT22;6121;49.810;6.418;2023-01-15T02:37:02;7.30;99.90
12115;DHT22;6121;49.810;6.418;2023-01-15T02:39:32;7.30;99.90
12115;DHT22;6121;49.810;6.418;2023-01-15T02:42:01;7.40;99.90
12115;DHT22;6121;49.810;6.418;2023-01-15T02:44:37;7.40;99.90
12115;DHT22;6121;49.810;6.418;2023-01-15T02:47:06;7.30;99.90
12115;DHT22;6121;49.810;6.418;2023-01-15T02:49:33;7.30;99.90
12115;DHT22;6121;49.810;6.418;2023-01-15T02:52:20;7.40;99.90
12115;DHT22;6121;49.810;6.418;2023-01-15T02:54:52;7.30;99.90
12115;DHT22;6121;49.810;6.418;2023-01-15T02:57:25;7.30;99.90
12115;DHT22;6121;49.810;6.418;2023-01-15T02:59:57;7.10;99.90
12115;DHT22;6121;49.810;6.418;2023-01-15T03:02:29;7.30;99.90
12115;DHT22;6121;49.810;6.418;2023-01-15T03:05:05;7.30;99.90
12115;DHT22;6121;49.810;6.418;2023-01-15T03:07:35;7.30;99.90
12115;DHT22;6121;49.810;6.418;2023-01-15T03:10:03;7.40;99.90
12115;DHT22;6121;49.810;6.418;2023-01-15T03:18:21;7.70;99.90
12115;DHT22;6121;49.810;6.418;2023-01-15T03:20:54;7.70;99.90
12115;DHT22;6121;49.810;6.418;2023-01-15T03:23:23;7.50;99.90
12115;DHT22;6121;49.810;6.418;2023-01-15T03:25:53;7.20;99.90
12115;DHT22;6121;49.810;6.418;2023-01-15T03:28:25;7.00;99.90
12115;DHT22;6121;49.810;6.418;2023-01-15T03:30:52;6.90;99.90
12115;DHT22;6121;49.810;6.418;2023-01-15T03:33:18;6.90;99.90
12115;DHT22;6121;49.810;6.418;2023-01-15T03:35:51;6.80;99.90
12115;DHT22;6121;49.810;6.418;2023-01-15T03:38:29;6.90;99.90
12115;DHT22;6121;49.810;6.418;2023-01-15T03:43:36;7.10;99.90
12115;DHT22;6121;49.810;6.418;2023-01-15T03:49:17;7.00;99.90
12115;DHT22;6121;49.810;6.418;2023-01-15T03:52:00;6.70;99.90
12115;DHT22;6121;49.810;6.418;2023-01-15T03:57:23;6.70;99.90
12115;DHT22;6121;49.810;6.418;2023-01-15T03:59:57;6.70;99.90
12115;DHT22;6121;49.810;6.418;2023-01-15T04:02:26;6.80;99.90
12115;DHT22;6121;49.810;6.418;2023-01-15T04:04:54;6.90;99.90
12115;DHT22;6121;49.810;6.418;2023-01-15T04:07:22;6.80;99.90
12115;DHT22;6121;49.810;6.418;2023-01-15T04:09:48;6.60;99.90
12115;DHT22;6121;49.810;6.418;2023-01-15T04:12:16;6.60;99.90
12115;DHT22;6121;49.810;6.418;2023-01-15T04:14:45;6.60;99.90
12115;DHT22;6121;49.810;6.418;2023-01-15T04:17:16;6.60;99.90
12115;DHT22;6121;49.810;6.418;2023-01-15T04:19:42;6.60;99.90
12115;DHT22;6121;49.810;6.418;2023-01-15T04:22:10;6.50;99.90
12115;DHT22;6121;49.810;6.418;2023-01-15T04:24:36;6.60;99.90
12115;DHT22;6121;49.810;6.418;2023-01-15T04:27:02;6.60;99.90
12115;DHT22;6121;49.810;6.418;2023-01-15T04:29:28;6.60;99.90
12115;DHT22;6121;49.810;6.418;2023-01-15T04:31:55;6.60;99.90
12115;DHT22;6121;49.810;6.418;2023-01-15T04:34:26;6.50;99.90
12115;DHT22;6121;49.810;6.418;2023-01-15T04:36:53;6.40;99.90
12115;DHT22;6121;49.810;6.418;2023-01-15T04:39:19;6.60;99.90
12115;DHT22;6121;49.810;6.418;2023-01-15T04:41:45;6.60;99.90
12115;DHT22;6121;49.810;6.418;2023-01-15T04:44:31;6.60;99.90
12115;DHT22;6121;49.810;6.418;2023-01-15T04:46:56;6.80;99.90
12115;DHT22;6121;49.810;6.418;2023-01-15T04:49:24;6.90;99.90
12115;DHT22;6121;49.810;6.418;2023-01-15T04:51:50;6.80;99.90
12115;DHT22;6121;49.810;6.418;2023-01-15T04:54:17;6.70;99.90
12115;DHT22;6121;49.810;6.418;2023-01-15T04:56:46;6.70;99.90
12115;DHT22;6121;49.810;6.418;2023-01-15T04:59:13;6.60;99.90
12115;DHT22;6121;49.810;6.418;2023-01-15T05:01:40;6.50;99.90
12115;DHT22;6121;49.810;6.418;2023-01-15T05:04:06;6.50;99.90
12115;DHT22;6121;49.810;6.418;2023-01-15T05:06:32;6.40;99.90
12115;DHT22;6121;49.810;6.418;2023-01-15T05:08:59;6.20;99.90
12115;DHT22;6121;49.810;6.418;2023-01-15T05:11:26;6.10;99.90
12115;DHT22;6121;49.810;6.418;2023-01-15T05:13:53;6.30;99.90
12115;DHT22;6121;49.810;6.418;2023-01-15T05:16:25;6.10;99.90
12115;DHT22;6121;49.810;6.418;2023-01-15T05:18:52;6.10;99.90
12115;DHT22;6121;49.810;6.418;2023-01-15T05:21:29;6.10;99.90
12115;DHT22;6121;49.810;6.418;2023-01-15T05:23:56;6.10;99.90
12115;DHT22;6121;49.810;6.418;2023-01-15T05:26:23;6.10;99.90
12115;DHT22;6121;49.810;6.418;2023-01-15T05:28:54;6.00;99.90
12115;DHT22;6121;49.810;6.418;2023-01-15T05:31:24;5.90;99.90
12115;DHT22;6121;49.810;6.418;2023-01-15T05:33:51;5.90;99.90
12115;DHT22;6121;49.810;6.418;2023-01-15T05:36:23;5.90;99.90
12115;DHT22;6121;49.810;6.418;2023-01-15T05:38:49;5.80;99.90
12115;DHT22;6121;49.810;6.418;2023-01-15T05:41:18;5.90;99.90
12115;DHT22;6121;49.810;6.418;2023-01-15T05:44:05;5.70;99.90
12115;DHT22;6121;49.810;6.418;2023-01-15T05:46:33;5.80;99.90
12115;DHT22;6121;49.810;6.418;2023-01-15T05:49:00;5.70;99.90
12115;DHT22;6121;49.810;6.418;2023-01-15T05:51:27;5.70;99.90
12115;DHT22;6121;49.810;6.418;2023-01-15T05:53:54;5.80;99.90
12115;DHT22;6121;49.810;6.418;2023-01-15T05:56:20;5.70;99.90
12115;DHT22;6121;49.810;6.418;2023-01-15T05:58:46;5.80;99.90
12115;DHT22;6121;49.810;6.418;2023-01-15T06:01:12;5.90;99.90
12115;DHT22;6121;49.810;6.418;2023-01-15T06:03:38;5.80;99.90
12115;DHT22;6121;49.810;6.418;2023-01-15T06:06:04;5.90;99.90
12115;DHT22;6121;49.810;6.418;2023-01-15T06:08:30;5.70;99.90
12115;DHT22;6121;49.810;6.418;2023-01-15T06:10:56;5.70;99.90
12115;DHT22;6121;49.810;6.418;2023-01-15T06:13:21;5.60;99.90
12115;DHT22;6121;49.810;6.418;2023-01-15T06:15:47;5.70;99.90
12115;DHT22;6121;49.810;6.418;2023-01-15T06:18:13;5.60;99.90
12115;DHT22;6121;49.810;6.418;2023-01-15T06:20:41;5.60;99.90
12115;DHT22;6121;49.810;6.418;2023-01-15T06:23:07;5.60;99.90
12115;DHT22;6121;49.810;6.418;2023-01-15T06:25:37;5.60;99.90
12115;DHT22;6121;49.810;6.418;2023-01-15T06:28:03;5.70;99.90
12115;DHT22;6121;49.810;6.418;2023-01-15T06:30:29;5.70;99.90
12115;DHT22;6121;49.810;6.418;2023-01-15T06:32:55;5.70;99.90
12115;DHT22;6121;49.810;6.418;2023-01-15T06:35:21;5.70;99.90
12115;DHT22;6121;49.810;6.418;2023-01-15T06:37:50;5.70;99.90
12115;DHT22;6121;49.810;6.418;2023-01-15T06:40:16;5.70;99.90
12115;DHT22;6121;49.810;6.418;2023-01-15T06:42:42;5.70;99.90
12115;DHT22;6121;49.810;6.418;2023-01-15T06:45:31;5.70;99.90
12115;DHT22;6121;49.810;6.418;2023-01-15T06:48:16;5.70;99.90
12115;DHT22;6121;49.810;6.418;2023-01-15T06:50:43;5.70;99.90
12115;DHT22;6121;49.810;6.418;2023-01-15T06:53:09;5.80;99.90
12115;DHT22;6121;49.810;6.418;2023-01-15T06:55:35;5.70;99.90
12115;DHT22;6121;49.810;6.418;2023-01-15T06:58:03;5.80;99.90
12115;DHT22;6121;49.810;6.418;2023-01-15T07:00:29;5.70;99.90
12115;DHT22;6121;49.810;6.418;2023-01-15T07:02:58;5.70;99.90
12115;DHT22;6121;49.810;6.418;2023-01-15T07:05:23;5.90;99.90
12115;DHT22;6121;49.810;6.418;2023-01-15T07:07:49;5.90;99.90
12115;DHT22;6121;49.810;6.418;2023-01-15T07:10:15;6.00;99.90
12115;DHT22;6121;49.810;6.418;2023-01-15T07:12:41;5.80;99.90
12115;DHT22;6121;49.810;6.418;2023-01-15T07:15:07;5.80;99.90
12115;DHT22;6121;49.810;6.418;2023-01-15T07:17:33;6.00;99.90
12115;DHT22;6121;49.810;6.418;2023-01-15T07:19:59;5.80;99.90
12115;DHT22;6121;49.810;6.418;2023-01-15T07:22:24;5.70;99.90
12115;DHT22;6121;49.810;6.418;2023-01-15T07:24:50;5.70;99.90
12115;DHT22;6121;49.810;6.418;2023-01-15T07:27:16;5.70;99.90
12115;DHT22;6121;49.810;6.418;2023-01-15T07:29:42;5.80;99.90
12115;DHT22;6121;49.810;6.418;2023-01-15T07:32:09;5.60;99.90
12115;DHT22;6121;49.810;6.418;2023-01-15T07:34:35;5.40;99.90
12115;DHT22;6121;49.810;6.418;2023-01-15T07:37:00;5.40;99.90
12115;DHT22;6121;49.810;6.418;2023-01-15T07:39:26;5.30;99.90
12115;DHT22;6121;49.810;6.418;2023-01-15T07:41:52;5.10;99.90
12115;DHT22;6121;49.810;6.418;2023-01-15T07:44:37;5.40;99.90
12115;DHT22;6121;49.810;6.418;2023-01-15T07:47:24;5.60;99.90
12115;DHT22;6121;49.810;6.418;2023-01-15T07:50:17;5.60;99.90
12115;DHT22;6121;49.810;6.418;2023-01-15T07:52:43;5.40;99.90
12115;DHT22;6121;49.810;6.418;2023-01-15T07:55:09;5.20;99.90
12115;DHT22;6121;49.810;6.418;2023-01-15T07:57:39;5.10;99.90
12115;DHT22;6121;49.810;6.418;2023-01-15T08:00:15;5.00;99.90
12115;DHT22;6121;49.810;6.418;2023-01-15T08:02:44;5.00;99.90
12115;DHT22;6121;49.810;6.418;2023-01-15T08:05:10;5.00;99.90
12115;DHT22;6121;49.810;6.418;2023-01-15T08:07:38;5.10;99.90
12115;DHT22;6121;49.810;6.418;2023-01-15T08:10:05;5.00;99.90
12115;DHT22;6121;49.810;6.418;2023-01-15T08:12:31;5.00;99.90
12115;DHT22;6121;49.810;6.418;2023-01-15T08:15:16;5.00;99.90
12115;DHT22;6121;49.810;6.418;2023-01-15T08:17:45;5.00;99.90
12115;DHT22;6121;49.810;6.418;2023-01-15T08:20:16;4.90;99.90
12115;DHT22;6121;49.810;6.418;2023-01-15T08:22:43;5.00;99.90
12115;DHT22;6121;49.810;6.418;2023-01-15T08:25:12;4.90;99.90
12115;DHT22;6121;49.810;6.418;2023-01-15T08:27:38;4.80;99.90
12115;DHT22;6121;49.810;6.418;2023-01-15T08:30:09;4.70;99.90
12115;DHT22;6121;49.810;6.418;2023-01-15T08:32:35;4.80;99.90
12115;DHT22;6121;49.810;6.418;2023-01-15T08:35:00;4.80;99.90
12115;DHT22;6121;49.810;6.418;2023-01-15T08:37:26;4.70;99.90
12115;DHT22;6121;49.810;6.418;2023-01-15T08:39:53;4.70;99.90
12115;DHT22;6121;49.810;6.418;2023-01-15T08:42:20;4.70;99.90
12115;DHT22;6121;49.810;6.418;2023-01-15T08:44:46;4.60;99.90
12115;DHT22;6121;49.810;6.418;2023-01-15T08:47:14;4.50;99.90
12115;DHT22;6121;49.810;6.418;2023-01-15T08:49:40;4.50;99.90
12115;DHT22;6121;49.810;6.418;2023-01-15T08:52:05;4.50;99.90
12115;DHT22;6121;49.810;6.418;2023-01-15T08:54:31;4.60;99.90
12115;DHT22;6121;49.810;6.418;2023-01-15T08:56:58;4.70;99.90
12115;DHT22;6121;49.810;6.418;2023-01-15T08:59:24;4.70;99.90
12115;DHT22;6121;49.810;6.418;2023-01-15T09:01:50;4.60;99.90
12115;DHT22;6121;49.810;6.418;2023-01-15T09:04:18;4.70;99.90
12115;DHT22;6121;49.810;6.418;2023-01-15T09:06:44;4.70;99.90
12115;DHT22;6121;49.810;6.418;2023-01-15T09:09:11;4.70;99.90
12115;DHT22;6121;49.810;6.418;2023-01-15T09:11:38;4.70;99.90
12115;DHT22;6121;49.810;6.418;2023-01-15T09:14:06;4.60;99.90
12115;DHT22;6121;49.810;6.418;2023-01-15T09:16:33;4.60;99.90
12115;DHT22;6121;49.810;6.418;2023-01-15T09:18:59;4.60;99.90
12115;DHT22;6121;49.810;6.418;2023-01-15T09:21:25;4.80;99.90
12115;DHT22;6121;49.810;6.418;2023-01-15T09:23:52;4.70;99.90
12115;DHT22;6121;49.810;6.418;2023-01-15T09:26:31;4.70;99.90
12115;DHT22;6121;49.810;6.418;2023-01-15T09:28:57;4.70;99.90
12115;DHT22;6121;49.810;6.418;2023-01-15T09:31:24;4.70;99.90
12115;DHT22;6121;49.810;6.418;2023-01-15T09:33:50;4.80;99.90
12115;DHT22;6121;49.810;6.418;2023-01-15T09:38:48;5.00;99.90
12115;DHT22;6121;49.810;6.418;2023-01-15T09:41:15;4.90;99.90
12115;DHT22;6121;49.810;6.418;2023-01-15T09:44:12;4.90;99.90
12115;DHT22;6121;49.810;6.418;2023-01-15T09:49:12;5.40;99.90
12115;DHT22;6121;49.810;6.418;2023-01-15T09:52:11;5.20;99.90
12115;DHT22;6121;49.810;6.418;2023-01-15T09:57:16;5.80;99.90
12115;DHT22;6121;49.810;6.418;2023-01-15T09:59:46;6.00;99.90
12115;DHT22;6121;49.810;6.418;2023-01-15T10:02:44;6.00;99.90
12115;DHT22;6121;49.810;6.418;2023-01-15T10:05:25;6.20;99.90
12115;DHT22;6121;49.810;6.418;2023-01-15T10:08:10;6.40;99.90
12115;DHT22;6121;49.810;6.418;2023-01-15T10:10:52;6.30;99.90
12115;DHT22;6121;49.810;6.418;2023-01-15T10:13:28;6.20;99.90
12115;DHT22;6121;49.810;6.418;2023-01-15T10:15:56;6.30;99.90
12115;DHT22;6121;49.810;6.418;2023-01-15T10:18:26;6.10;99.90
12115;DHT22;6121;49.810;6.418;2023-01-15T10:26:42;6.20;99.90
12115;DHT22;6121;49.810;6.418;2023-01-15T10:29:17;6.30;99.90
12115;DHT22;6121;49.810;6.418;2023-01-15T10:31:55;6.20;99.90
12115;DHT22;6121;49.810;6.418;2023-01-15T10:39:46;6.50;99.90
12115;DHT22;6121;49.810;6.418;2023-01-15T10:42:46;6.50;99.90
12115;DHT22;6121;49.810;6.418;2023-01-15T10:45:23;6.60;99.90
12115;DHT22;6121;49.810;6.418;2023-01-15T10:50:38;6.90;99.90
12115;DHT22;6121;49.810;6.418;2023-01-15T10:53:46;7.20;99.90
12115;DHT22;6121;49.810;6.418;2023-01-15T10:56:19;7.50;99.90
12115;DHT22;6121;49.810;6.418;2023-01-15T10:58:51;7.60;99.90
12115;DHT22;6121;49.810;6.418;2023-01-15T11:01:20;7.40;99.90
12115;DHT22;6121;49.810;6.418;2023-01-15T11:03:48;7.90;99.90
12115;DHT22;6121;49.810;6.418;2023-01-15T11:06:17;8.30;99.90
12115;DHT22;6121;49.810;6.418;2023-01-15T11:08:57;9.70;99.90
12115;DHT22;6121;49.810;6.418;2023-01-15T11:11:43;11.00;99.90
12115;DHT22;6121;49.810;6.418;2023-01-15T11:14:42;10.60;99.90
12115;DHT22;6121;49.810;6.418;2023-01-15T11:20:31;11.30;99.90
12115;DHT22;6121;49.810;6.418;2023-01-15T11:23:09;11.10;99.90
12115;DHT22;6121;49.810;6.418;2023-01-15T11:25:35;11.00;99.90
12115;DHT22;6121;49.810;6.418;2023-01-15T11:28:05;11.60;99.90
12115;DHT22;6121;49.810;6.418;2023-01-15T11:30:34;11.80;99.90
12115;DHT22;6121;49.810;6.418;2023-01-15T11:33:05;11.50;99.90
12115;DHT22;6121;49.810;6.418;2023-01-15T11:35:32;11.60;99.90
12115;DHT22;6121;49.810;6.418;2023-01-15T11:38:07;11.90;99.90
12115;DHT22;6121;49.810;6.418;2023-01-15T11:40:36;11.20;99.90
12115;DHT22;6121;49.810;6.418;2023-01-15T11:43:01;10.10;99.90
12115;DHT22;6121;49.810;6.418;2023-01-15T11:45:50;9.30;99.90
12115;DHT22;6121;49.810;6.418;2023-01-15T11:48:46;9.30;99.90
12115;DHT22;6121;49.810;6.418;2023-01-15T11:51:41;9.10;99.90
12115;DHT22;6121;49.810;6.418;2023-01-15T11:54:10;9.20;99.90
12115;DHT22;6121;49.810;6.418;2023-01-15T11:56:41;9.20;99.90
12115;DHT22;6121;49.810;6.418;2023-01-15T11:59:17;9.10;99.90
12115;DHT22;6121;49.810;6.418;2023-01-15T12:01:53;9.40;99.90
12115;DHT22;6121;49.810;6.418;2023-01-15T12:04:48;9.20;99.90
12115;DHT22;6121;49.810;6.418;2023-01-15T12:07:19;8.50;99.90
12115;DHT22;6121;49.810;6.418;2023-01-15T12:10:10;8.60;99.90
12115;DHT22;6121;49.810;6.418;2023-01-15T12:12:59;8.50;99.90
12115;DHT22;6121;49.810;6.418;2023-01-15T12:18:36;8.30;99.90
12115;DHT22;6121;49.810;6.418;2023-01-15T12:21:11;8.10;99.90
12115;DHT22;6121;49.810;6.418;2023-01-15T12:31:37;7.90;99.90
12115;DHT22;6121;49.810;6.418;2023-01-15T12:34:28;7.90;99.90
12115;DHT22;6121;49.810;6.418;2023-01-15T12:37:10;8.30;99.90
12115;DHT22;6121;49.810;6.418;2023-01-15T12:40:17;8.50;99.90
12115;DHT22;6121;49.810;6.418;2023-01-15T12:42:48;8.60;99.90
12115;DHT22;6121;49.810;6.418;2023-01-15T12:45:44;8.20;99.90
12115;DHT22;6121;49.810;6.418;2023-01-15T12:48:27;8.20;99.90
12115;DHT22;6121;49.810;6.418;2023-01-15T12:51:00;8.20;99.90
12115;DHT22;6121;49.810;6.418;2023-01-15T12:53:39;8.10;99.90
12115;DHT22;6121;49.810;6.418;2023-01-15T13:04:16;8.80;99.90
12115;DHT22;6121;49.810;6.418;2023-01-15T13:06:51;8.70;99.90
12115;DHT22;6121;49.810;6.418;2023-01-15T13:09:40;8.40;99.90
12115;DHT22;6121;49.810;6.418;2023-01-15T13:12:15;8.30;99.90
12115;DHT22;6121;49.810;6.418;2023-01-15T13:14:42;8.20;99.90
12115;DHT22;6121;49.810;6.418;2023-01-15T13:20:34;7.90;99.90
12115;DHT22;6121;49.810;6.418;2023-01-15T13:31:34;7.70;99.90
12115;DHT22;6121;49.810;6.418;2023-01-15T13:34:12;7.70;99.90
12115;DHT22;6121;49.810;6.418;2023-01-15T13:36:43;7.60;99.90
12115;DHT22;6121;49.810;6.418;2023-01-15T13:39:22;7.40;99.90
12115;DHT22;6121;49.810;6.418;2023-01-15T13:41:51;7.30;99.90
12115;DHT22;6121;49.810;6.418;2023-01-15T13:44:46;7.30;99.90
12115;DHT22;6121;49.810;6.418;2023-01-15T13:47:19;7.40;99.90
12115;DHT22;6121;49.810;6.418;2023-01-15T13:49:57;7.60;99.90
12115;DHT22;6121;49.810;6.418;2023-01-15T13:52:30;7.50;99.90
12115;DHT22;6121;49.810;6.418;2023-01-15T13:55:07;7.50;99.90
12115;DHT22;6121;49.810;6.418;2023-01-15T13:57:35;7.50;99.90
12115;DHT22;6121;49.810;6.418;2023-01-15T14:00:05;7.40;99.90
12115;DHT22;6121;49.810;6.418;2023-01-15T14:02:38;7.20;99.90
12115;DHT22;6121;49.810;6.418;2023-01-15T14:05:25;7.20;99.90
12115;DHT22;6121;49.810;6.418;2023-01-15T14:07:52;7.10;99.90
12115;DHT22;6121;49.810;6.418;2023-01-15T14:10:23;7.00;99.90
12115;DHT22;6121;49.810;6.418;2023-01-15T14:13:21;6.90;99.90
12115;DHT22;6121;49.810;6.418;2023-01-15T14:16:13;7.10;99.90
12115;DHT22;6121;49.810;6.418;2023-01-15T14:24:58;7.00;99.90
12115;DHT22;6121;49.810;6.418;2023-01-15T14:35:39;7.30;99.90
12115;DHT22;6121;49.810;6.418;2023-01-15T14:38:12;7.30;99.90
12115;DHT22;6121;49.810;6.418;2023-01-15T14:41:10;7.30;99.90
12115;DHT22;6121;49.810;6.418;2023-01-15T14:43:38;7.20;99.90
12115;DHT22;6121;49.810;6.418;2023-01-15T14:46:26;7.20;99.90
12115;DHT22;6121;49.810;6.418;2023-01-15T14:48:53;6.90;99.90
12115;DHT22;6121;49.810;6.418;2023-01-15T14:51:26;6.80;99.90
12115;DHT22;6121;49.810;6.418;2023-01-15T14:54:03;6.80;99.90
12115;DHT22;6121;49.810;6.418;2023-01-15T14:56:36;7.10;99.90
12115;DHT22;6121;49.810;6.418;2023-01-15T14:59:23;7.10;99.90
12115;DHT22;6121;49.810;6.418;2023-01-15T15:01:51;7.20;99.90
12115;DHT22;6121;49.810;6.418;2023-01-15T15:04:39;7.10;99.90
12115;DHT22;6121;49.810;6.418;2023-01-15T15:07:13;7.00;99.90
12115;DHT22;6121;49.810;6.418;2023-01-15T15:13:01;7.10;99.90
12115;DHT22;6121;49.810;6.418;2023-01-15T15:15:52;7.00;99.90
12115;DHT22;6121;49.810;6.418;2023-01-15T15:18:38;6.90;99.90
12115;DHT22;6121;49.810;6.418;2023-01-15T15:21:11;7.10;99.90
12115;DHT22;6121;49.810;6.418;2023-01-15T15:23:48;6.90;99.90
12115;DHT22;6121;49.810;6.418;2023-01-15T15:26:24;7.00;99.90
12115;DHT22;6121;49.810;6.418;2023-01-15T15:29:12;6.80;99.90
12115;DHT22;6121;49.810;6.418;2023-01-15T15:31:52;6.90;99.90
12115;DHT22;6121;49.810;6.418;2023-01-15T15:34:32;6.80;99.90
12115;DHT22;6121;49.810;6.418;2023-01-15T15:37:14;6.90;99.90
12115;DHT22;6121;49.810;6.418;2023-01-15T15:40:01;6.90;99.90
12115;DHT22;6121;49.810;6.418;2023-01-15T15:42:36;6.80;99.90
12115;DHT22;6121;49.810;6.418;2023-01-15T15:45:23;6.70;99.90
12115;DHT22;6121;49.810;6.418;2023-01-15T15:50:57;6.90;99.90
12115;DHT22;6121;49.810;6.418;2023-01-15T15:53:23;6.80;99.90
12115;DHT22;6121;49.810;6.418;2023-01-15T15:55:49;6.70;99.90
12115;DHT22;6121;49.810;6.418;2023-01-15T15:58:31;6.60;99.90
12115;DHT22;6121;49.810;6.418;2023-01-15T16:00:58;6.70;99.90
12115;DHT22;6121;49.810;6.418;2023-01-15T16:03:27;6.90;99.90
12115;DHT22;6121;49.810;6.418;2023-01-15T16:06:01;6.80;99.90
12115;DHT22;6121;49.810;6.418;2023-01-15T16:08:32;6.60;99.90
12115;DHT22;6121;49.810;6.418;2023-01-15T16:11:05;6.60;99.90
12115;DHT22;6121;49.810;6.418;2023-01-15T16:13:41;6.60;99.90
12115;DHT22;6121;49.810;6.418;2023-01-15T16:16:10;6.60;99.90
12115;DHT22;6121;49.810;6.418;2023-01-15T16:18:41;6.80;99.90
12115;DHT22;6121;49.810;6.418;2023-01-15T16:21:32;6.80;99.90
12115;DHT22;6121;49.810;6.418;2023-01-15T16:24:00;6.70;99.90
12115;DHT22;6121;49.810;6.418;2023-01-15T16:29:04;6.60;99.90
12115;DHT22;6121;49.810;6.418;2023-01-15T16:31:35;6.60;99.90
12115;DHT22;6121;49.810;6.418;2023-01-15T16:34:02;6.60;99.90
12115;DHT22;6121;49.810;6.418;2023-01-15T16:36:39;6.50;99.90
12115;DHT22;6121;49.810;6.418;2023-01-15T16:39:20;6.40;99.90
12115;DHT22;6121;49.810;6.418;2023-01-15T16:41:48;6.40;99.90
12115;DHT22;6121;49.810;6.418;2023-01-15T16:47:03;6.40;99.90
12115;DHT22;6121;49.810;6.418;2023-01-15T16:49:31;6.40;99.90
12115;DHT22;6121;49.810;6.418;2023-01-15T16:51:59;6.50;99.90
12115;DHT22;6121;49.810;6.418;2023-01-15T16:56:55;6.40;99.90
12115;DHT22;6121;49.810;6.418;2023-01-15T17:02:13;6.40;99.90
12115;DHT22;6121;49.810;6.418;2023-01-15T17:04:42;6.30;99.90
12115;DHT22;6121;49.810;6.418;2023-01-15T17:07:34;6.30;99.90
12115;DHT22;6121;49.810;6.418;2023-01-15T17:10:03;6.50;99.90
12115;DHT22;6121;49.810;6.418;2023-01-15T17:12:37;6.40;99.90
12115;DHT22;6121;49.810;6.418;2023-01-15T17:15:28;6.50;99.90
12115;DHT22;6121;49.810;6.418;2023-01-15T17:17:55;6.50;99.90
12115;DHT22;6121;49.810;6.418;2023-01-15T17:20:22;6.50;99.90
12115;DHT22;6121;49.810;6.418;2023-01-15T17:22:53;6.50;99.90
12115;DHT22;6121;49.810;6.418;2023-01-15T17:25:32;6.50;99.90
12115;DHT22;6121;49.810;6.418;2023-01-15T17:28:02;6.60;99.90
12115;DHT22;6121;49.810;6.418;2023-01-15T17:30:30;6.60;99.90
12115;DHT22;6121;49.810;6.418;2023-01-15T17:32:57;6.70;99.90
12115;DHT22;6121;49.810;6.418;2023-01-15T17:35:29;6.80;99.90
12115;DHT22;6121;49.810;6.418;2023-01-15T17:37:55;6.90;99.90
12115;DHT22;6121;49.810;6.418;2023-01-15T17:40:21;6.80;99.90
12115;DHT22;6121;49.810;6.418;2023-01-15T17:42:47;6.50;99.90
12115;DHT22;6121;49.810;6.418;2023-01-15T17:45:25;6.70;99.90
12115;DHT22;6121;49.810;6.418;2023-01-15T17:47:51;6.80;99.90
12115;DHT22;6121;49.810;6.418;2023-01-15T17:50:18;6.60;99.90
12115;DHT22;6121;49.810;6.418;2023-01-15T17:52:44;6.60;99.90
12115;DHT22;6121;49.810;6.418;2023-01-15T17:55:12;6.70;99.90
12115;DHT22;6121;49.810;6.418;2023-01-15T17:57:57;6.40;99.90
12115;DHT22;6121;49.810;6.418;2023-01-15T18:00:42;6.30;99.90
12115;DHT22;6121;49.810;6.418;2023-01-15T18:03:27;6.40;99.90
12115;DHT22;6121;49.810;6.418;2023-01-15T18:06:14;6.40;99.90
12115;DHT22;6121;49.810;6.418;2023-01-15T18:08:43;6.30;99.90
12115;DHT22;6121;49.810;6.418;2023-01-15T18:11:11;6.20;99.90
12115;DHT22;6121;49.810;6.418;2023-01-15T18:13:37;6.40;99.90
12115;DHT22;6121;49.810;6.418;2023-01-15T18:16:07;6.30;99.90
12115;DHT22;6121;49.810;6.418;2023-01-15T18:18:32;6.20;99.90
12115;DHT22;6121;49.810;6.418;2023-01-15T18:20:59;6.10;99.90